Green Valley, West Virginia
Current Conditions -  °F | °C
As of 4:52 PM on Friday 24 Oct 2014 (Local Time) from KBLF Reporting Station
Clear Clear  
Wind Chill: 58°   Ceiling: Unl
Heat Index: 58°   Visibility: 10mi
Dew Point: 38°   Wind: 9mph
Humidity: 47%   Direction: 270°W
Pressure: 30.05"   Gusts: NA
Location:  37.2994°N, 81.226°W
Report Text: KBLF 242052Z AUTO 27008KT 10SM CLR 14/03 A3005 RMK AO2 SLP169 T01440033 56006
Loading
Personal Weather Stations






























Interactive Weather Map
Tropical Storm Tracking
New forecast layout! Learn more

10-Day Weather Forecast

Advertisements
Track Severe Weather on mobile